Broek op Langedijk, Netherlands
Current Conditions -  °F | °C
As of 11:25 PM on Friday 24 Oct 2014 (Local Time) from EHKD Reporting Station
Haze Haze  
Wind Chill: 55°   Ceiling: 600
Heat Index: 55°   Visibility: 4mi
Dew Point: 54°   Wind: 16mph
Humidity: 94%   Direction: 190°S
Pressure: 29.91"   Gusts: NA
Location:  52.67°N, 4.81°E
Report Text: EHKD 242125Z AUTO 19014KT 7000 BR OVC006 13/12 Q1013 REDZ YLO
Loading
Personal Weather Stations






























Interactive Weather Map
Tropical Storm Tracking
New forecast layout! Learn more

10-Day Weather Forecast

Advertisements
Track Severe Weather on mobile